Terminal Aerodrome Forecast
Issued by NWS Grand Forks, ND

Home | Current Version | Previous Version | Text Only | Print | Product List | Glossary Off
Versions: 1 2 3 4 5 6 7 8 9 10 11 12

000
FTUS43 KFGF 292300
TAFGFK
TAF
KGFK 292320Z 3000/3024 31012KT P6SM SCT080
     FM300100 29006KT P6SM SKC
     FM300800 15004KT P6SM BKN120
     FM301100 16006KT P6SM VCSH OVC050
     FM301900 30014G22KT P6SM SCT120=

USA.gov is the U.S. government's official web portal to all federal, state and local government web resources and services.